sensor_id;sensor_type;location;lat;lon;timestamp;pressure;altitude;pressure_sealevel;temperature;humidity
13869;BME280;7004;48.206;16.402;2023-02-12T00:02:20;101269.34;;;7.33;66.54
13869;BME280;7004;48.206;16.402;2023-02-12T00:04:47;101265.00;;;7.32;66.57
13869;BME280;7004;48.206;16.402;2023-02-12T00:07:13;101266.91;;;7.25;66.97
13869;BME280;7004;48.206;16.402;2023-02-12T00:09:39;101279.31;;;7.54;66.72
13869;BME280;7004;48.206;16.402;2023-02-12T00:12:06;101275.53;;;7.32;67.45
13869;BME280;7004;48.206;16.402;2023-02-12T00:14:32;101288.31;;;7.46;67.43
13869;BME280;7004;48.206;16.402;2023-02-12T00:16:59;101290.56;;;7.27;68.33
13869;BME280;7004;48.206;16.402;2023-02-12T00:19:25;101279.66;;;7.42;67.78
13869;BME280;7004;48.206;16.402;2023-02-12T00:21:51;101282.72;;;7.23;68.15
13869;BME280;7004;48.206;16.402;2023-02-12T00:24:18;101285.16;;;7.31;68.18
13869;BME280;7004;48.206;16.402;2023-02-12T00:26:44;101288.91;;;7.22;68.77
13869;BME280;7004;48.206;16.402;2023-02-12T00:29:10;101286.47;;;7.49;68.69
13869;BME280;7004;48.206;16.402;2023-02-12T00:31:36;101296.88;;;7.19;69.43
13869;BME280;7004;48.206;16.402;2023-02-12T00:34:02;101301.56;;;7.42;69.52
13869;BME280;7004;48.206;16.402;2023-02-12T00:36:31;101292.31;;;7.26;70.01
13869;BME280;7004;48.206;16.402;2023-02-12T00:38:58;101293.47;;;7.50;68.96
13869;BME280;7004;48.206;16.402;2023-02-12T00:41:25;101291.25;;;7.33;69.28
13869;BME280;7004;48.206;16.402;2023-02-12T00:43:51;101289.63;;;7.63;68.40
13869;BME280;7004;48.206;16.402;2023-02-12T00:46:20;101289.16;;;7.12;70.48
13869;BME280;7004;48.206;16.402;2023-02-12T00:48:46;101285.44;;;7.20;70.51
13869;BME280;7004;48.206;16.402;2023-02-12T00:51:12;101296.41;;;7.38;69.57
13869;BME280;7004;48.206;16.402;2023-02-12T00:53:39;101293.75;;;7.39;69.73
13869;BME280;7004;48.206;16.402;2023-02-12T00:56:06;101279.78;;;7.70;68.96
13869;BME280;7004;48.206;16.402;2023-02-12T00:58:32;101297.63;;;7.25;70.68
13869;BME280;7004;48.206;16.402;2023-02-12T01:00:58;101300.06;;;7.66;69.32
13869;BME280;7004;48.206;16.402;2023-02-12T01:03:24;101300.16;;;7.28;70.73
13869;BME280;7004;48.206;16.402;2023-02-12T01:05:51;101301.00;;;7.30;71.22
13869;BME280;7004;48.206;16.402;2023-02-12T01:08:18;101291.97;;;7.74;69.58
13869;BME280;7004;48.206;16.402;2023-02-12T01:10:44;101302.13;;;7.55;69.12
13869;BME280;7004;48.206;16.402;2023-02-12T01:13:14;101301.16;;;7.58;69.56
13869;BME280;7004;48.206;16.402;2023-02-12T01:15:41;101302.34;;;7.46;71.35
13869;BME280;7004;48.206;16.402;2023-02-12T01:18:07;101303.66;;;7.28;71.33
13869;BME280;7004;48.206;16.402;2023-02-12T01:20:33;101310.00;;;7.55;70.87
13869;BME280;7004;48.206;16.402;2023-02-12T01:23:00;101318.97;;;7.47;70.96
13869;BME280;7004;48.206;16.402;2023-02-12T01:25:26;101325.84;;;7.52;71.48
13869;BME280;7004;48.206;16.402;2023-02-12T01:27:53;101328.63;;;7.48;71.42
13869;BME280;7004;48.206;16.402;2023-02-12T01:30:19;101309.63;;;7.71;70.70
13869;BME280;7004;48.206;16.402;2023-02-12T01:32:48;101303.94;;;7.52;71.76
13869;BME280;7004;48.206;16.402;2023-02-12T01:35:15;101316.06;;;7.57;70.75
13869;BME280;7004;48.206;16.402;2023-02-12T01:37:41;101317.94;;;7.18;73.05
13869;BME280;7004;48.206;16.402;2023-02-12T01:40:08;101316.25;;;7.51;71.96
13869;BME280;7004;48.206;16.402;2023-02-12T01:42:35;101335.38;;;7.58;71.33
13869;BME280;7004;48.206;16.402;2023-02-12T01:47:41;101329.97;;;7.62;72.74
13869;BME280;7004;48.206;16.402;2023-02-12T01:50:14;101336.47;;;7.49;72.42
13869;BME280;7004;48.206;16.402;2023-02-12T01:52:46;101337.47;;;7.78;71.97
13869;BME280;7004;48.206;16.402;2023-02-12T01:55:13;101346.53;;;8.02;70.42
13869;BME280;7004;48.206;16.402;2023-02-12T01:57:43;101333.31;;;7.69;72.48
13869;BME280;7004;48.206;16.402;2023-02-12T02:00:17;101332.13;;;7.47;73.81
13869;BME280;7004;48.206;16.402;2023-02-12T02:02:50;101326.81;;;7.84;71.49
13869;BME280;7004;48.206;16.402;2023-02-12T02:05:58;101330.59;;;7.38;74.04
13869;BME280;7004;48.206;16.402;2023-02-12T02:08:27;101332.59;;;7.62;72.82
13869;BME280;7004;48.206;16.402;2023-02-12T02:10:53;101341.06;;;7.75;72.80
13869;BME280;7004;48.206;16.402;2023-02-12T02:13:19;101332.50;;;7.67;74.00
13869;BME280;7004;48.206;16.402;2023-02-12T02:16:20;101333.22;;;7.74;73.55
13869;BME280;7004;48.206;16.402;2023-02-12T02:31:43;101341.97;;;7.40;77.86
13869;BME280;7004;48.206;16.402;2023-02-12T02:34:42;101347.50;;;7.29;78.28
13869;BME280;7004;48.206;16.402;2023-02-12T02:37:22;101343.59;;;7.44;77.43
13869;BME280;7004;48.206;16.402;2023-02-12T02:40:18;101336.13;;;7.27;77.66
13869;BME280;7004;48.206;16.402;2023-02-12T02:42:53;101345.44;;;7.40;77.32
13869;BME280;7004;48.206;16.402;2023-02-12T02:45:47;101333.63;;;7.21;77.57
13869;BME280;7004;48.206;16.402;2023-02-12T02:48:26;101330.25;;;7.52;76.13
13869;BME280;7004;48.206;16.402;2023-02-12T02:51:07;101339.16;;;7.80;75.09
13869;BME280;7004;48.206;16.402;2023-02-12T02:53:44;101345.91;;;7.22;77.84
13869;BME280;7004;48.206;16.402;2023-02-12T02:56:16;101339.16;;;7.10;77.43
13869;BME280;7004;48.206;16.402;2023-02-12T02:58:57;101351.16;;;7.22;77.94
13869;BME280;7004;48.206;16.402;2023-02-12T03:01:51;101343.28;;;7.58;76.62
13869;BME280;7004;48.206;16.402;2023-02-12T03:04:49;101348.38;;;7.64;75.21
13869;BME280;7004;48.206;16.402;2023-02-12T03:07:33;101358.50;;;7.79;75.37
13869;BME280;7004;48.206;16.402;2023-02-12T03:10:27;101364.44;;;7.87;74.20
13869;BME280;7004;48.206;16.402;2023-02-12T03:13:06;101364.47;;;7.52;75.78
13869;BME280;7004;48.206;16.402;2023-02-12T03:15:52;101366.59;;;7.36;76.13
13869;BME280;7004;48.206;16.402;2023-02-12T03:18:25;101385.88;;;7.36;77.43
13869;BME280;7004;48.206;16.402;2023-02-12T03:21:10;101393.81;;;7.35;76.77
13869;BME280;7004;48.206;16.402;2023-02-12T03:23:55;101392.25;;;7.26;77.66
13869;BME280;7004;48.206;16.402;2023-02-12T03:26:37;101389.75;;;7.21;77.22
13869;BME280;7004;48.206;16.402;2023-02-12T03:29:05;101408.63;;;7.39;76.55
13869;BME280;7004;48.206;16.402;2023-02-12T03:37:17;101403.66;;;7.62;76.00
13869;BME280;7004;48.206;16.402;2023-02-12T03:47:54;101408.78;;;7.31;77.00
13869;BME280;7004;48.206;16.402;2023-02-12T03:53:17;101425.34;;;7.74;73.90
13869;BME280;7004;48.206;16.402;2023-02-12T03:55:48;101429.50;;;7.82;73.67
13869;BME280;7004;48.206;16.402;2023-02-12T03:58:21;101433.00;;;7.08;76.72
13869;BME280;7004;48.206;16.402;2023-02-12T04:00:49;101433.97;;;7.43;75.77
13869;BME280;7004;48.206;16.402;2023-02-12T04:03:16;101430.72;;;7.32;76.66
13869;BME280;7004;48.206;16.402;2023-02-12T04:05:42;101436.19;;;7.60;75.70
13869;BME280;7004;48.206;16.402;2023-02-12T04:08:10;101443.59;;;7.44;75.63
13869;BME280;7004;48.206;16.402;2023-02-12T04:17:29;101445.28;;;7.47;75.22
13869;BME280;7004;48.206;16.402;2023-02-12T04:32:35;101454.44;;;7.30;76.65
13869;BME280;7004;48.206;16.402;2023-02-12T04:37:44;101470.19;;;7.32;77.11
13869;BME280;7004;48.206;16.402;2023-02-12T04:40:16;101468.75;;;7.17;77.36
13869;BME280;7004;48.206;16.402;2023-02-12T04:42:50;101468.44;;;7.31;77.66
13869;BME280;7004;48.206;16.402;2023-02-12T04:45:28;101456.97;;;7.33;77.00
13869;BME280;7004;48.206;16.402;2023-02-12T04:47:54;101465.88;;;7.28;76.56
13869;BME280;7004;48.206;16.402;2023-02-12T04:50:21;101475.78;;;6.73;78.55
13869;BME280;7004;48.206;16.402;2023-02-12T04:52:48;101472.81;;;6.90;78.88
13869;BME280;7004;48.206;16.402;2023-02-12T04:55:14;101473.63;;;6.93;78.29
13869;BME280;7004;48.206;16.402;2023-02-12T04:57:41;101485.72;;;7.02;79.55
13869;BME280;7004;48.206;16.402;2023-02-12T05:00:11;101486.22;;;6.77;79.60
13869;BME280;7004;48.206;16.402;2023-02-12T05:02:37;101493.06;;;6.85;79.85
13869;BME280;7004;48.206;16.402;2023-02-12T05:05:04;101483.31;;;6.90;79.31
13869;BME280;7004;48.206;16.402;2023-02-12T05:07:30;101497.88;;;6.64;80.71
13869;BME280;7004;48.206;16.402;2023-02-12T05:09:56;101500.34;;;6.72;81.01
13869;BME280;7004;48.206;16.402;2023-02-12T05:12:22;101492.63;;;6.61;80.90
13869;BME280;7004;48.206;16.402;2023-02-12T05:14:48;101502.41;;;6.99;79.64
13869;BME280;7004;48.206;16.402;2023-02-12T05:17:14;101507.31;;;6.73;81.54
13869;BME280;7004;48.206;16.402;2023-02-12T05:19:40;101507.25;;;6.76;81.57
13869;BME280;7004;48.206;16.402;2023-02-12T05:22:06;101504.97;;;6.59;82.65
13869;BME280;7004;48.206;16.402;2023-02-12T05:24:32;101509.75;;;6.82;80.77
13869;BME280;7004;48.206;16.402;2023-02-12T05:26:58;101515.84;;;6.84;79.90
13869;BME280;7004;48.206;16.402;2023-02-12T05:29:24;101516.88;;;6.77;81.03
13869;BME280;7004;48.206;16.402;2023-02-12T05:31:51;101520.41;;;6.76;81.94
13869;BME280;7004;48.206;16.402;2023-02-12T05:34:17;101526.84;;;7.05;81.24
13869;BME280;7004;48.206;16.402;2023-02-12T05:36:43;101525.38;;;6.91;81.59
13869;BME280;7004;48.206;16.402;2023-02-12T05:39:10;101529.47;;;6.60;82.31
13869;BME280;7004;48.206;16.402;2023-02-12T05:41:37;101536.44;;;7.07;81.27
13869;BME280;7004;48.206;16.402;2023-02-12T05:44:04;101540.38;;;7.30;79.83
13869;BME280;7004;48.206;16.402;2023-02-12T05:46:32;101534.81;;;7.00;81.03
13869;BME280;7004;48.206;16.402;2023-02-12T05:48:58;101544.25;;;7.12;80.31
13869;BME280;7004;48.206;16.402;2023-02-12T05:51:26;101535.22;;;7.25;79.69
13869;BME280;7004;48.206;16.402;2023-02-12T05:53:57;101548.28;;;7.30;79.93
13869;BME280;7004;48.206;16.402;2023-02-12T05:56:29;101558.59;;;6.95;80.53
13869;BME280;7004;48.206;16.402;2023-02-12T05:59:05;101568.75;;;7.14;80.43
13869;BME280;7004;48.206;16.402;2023-02-12T06:01:38;101565.16;;;7.18;79.63
13869;BME280;7004;48.206;16.402;2023-02-12T06:04:09;101574.09;;;7.11;80.14
13869;BME280;7004;48.206;16.402;2023-02-12T06:06:38;101575.81;;;7.12;80.71
13869;BME280;7004;48.206;16.402;2023-02-12T06:09:08;101576.38;;;6.81;81.51
13869;BME280;7004;48.206;16.402;2023-02-12T06:11:36;101582.69;;;6.72;82.19
13869;BME280;7004;48.206;16.402;2023-02-12T06:14:04;101585.63;;;7.02;81.62
13869;BME280;7004;48.206;16.402;2023-02-12T06:16:31;101580.28;;;7.08;80.97
13869;BME280;7004;48.206;16.402;2023-02-12T06:19:03;101591.00;;;6.96;82.39
13869;BME280;7004;48.206;16.402;2023-02-12T06:21:31;101589.53;;;7.26;80.73
13869;BME280;7004;48.206;16.402;2023-02-12T06:23:57;101594.34;;;7.04;81.00
13869;BME280;7004;48.206;16.402;2023-02-12T06:26:24;101595.72;;;7.25;81.23
13869;BME280;7004;48.206;16.402;2023-02-12T06:28:51;101596.56;;;7.26;80.86
13869;BME280;7004;48.206;16.402;2023-02-12T06:31:23;101599.97;;;7.32;81.31
13869;BME280;7004;48.206;16.402;2023-02-12T06:33:50;101601.47;;;6.99;81.62
13869;BME280;7004;48.206;16.402;2023-02-12T06:36:17;101604.09;;;6.99;82.48
13869;BME280;7004;48.206;16.402;2023-02-12T06:38:44;101600.94;;;7.27;80.54
13869;BME280;7004;48.206;16.402;2023-02-12T06:41:11;101611.31;;;7.34;80.88
13869;BME280;7004;48.206;16.402;2023-02-12T06:43:37;101600.97;;;7.23;81.06
13869;BME280;7004;48.206;16.402;2023-02-12T06:46:04;101607.38;;;7.10;81.19
13869;BME280;7004;48.206;16.402;2023-02-12T06:48:32;101613.31;;;7.21;80.97
13869;BME280;7004;48.206;16.402;2023-02-12T06:51:12;101612.59;;;7.57;79.88
13869;BME280;7004;48.206;16.402;2023-02-12T06:53:39;101616.13;;;7.56;78.71
13869;BME280;7004;48.206;16.402;2023-02-12T06:56:07;101621.06;;;7.29;79.95
13869;BME280;7004;48.206;16.402;2023-02-12T06:58:37;101622.66;;;7.36;80.13
13869;BME280;7004;48.206;16.402;2023-02-12T07:01:15;101622.00;;;7.27;80.40
13869;BME280;7004;48.206;16.402;2023-02-12T07:03:51;101622.94;;;7.21;80.57
13869;BME280;7004;48.206;16.402;2023-02-12T07:06:18;101633.94;;;7.41;80.35
13869;BME280;7004;48.206;16.402;2023-02-12T07:08:44;101636.88;;;7.28;81.17
13869;BME280;7004;48.206;16.402;2023-02-12T07:11:11;101628.84;;;7.34;80.19
13869;BME280;7004;48.206;16.402;2023-02-12T07:13:37;101632.44;;;7.30;80.12
13869;BME280;7004;48.206;16.402;2023-02-12T07:16:08;101629.13;;;7.63;79.27
13869;BME280;7004;48.206;16.402;2023-02-12T07:18:36;101633.47;;;7.22;80.54
13869;BME280;7004;48.206;16.402;2023-02-12T07:21:03;101635.41;;;7.56;78.87
13869;BME280;7004;48.206;16.402;2023-02-12T07:23:31;101643.06;;;7.69;78.68
13869;BME280;7004;48.206;16.402;2023-02-12T07:26:10;101639.25;;;7.40;79.62
13869;BME280;7004;48.206;16.402;2023-02-12T07:28:38;101637.19;;;7.56;79.05
13869;BME280;7004;48.206;16.402;2023-02-12T07:31:19;101645.81;;;7.19;80.38
13869;BME280;7004;48.206;16.402;2023-02-12T07:33:46;101644.31;;;7.93;78.48
13869;BME280;7004;48.206;16.402;2023-02-12T07:36:18;101650.03;;;7.28;80.01
13869;BME280;7004;48.206;16.402;2023-02-12T07:38:44;101657.25;;;7.61;80.55
13869;BME280;7004;48.206;16.402;2023-02-12T07:41:15;101645.97;;;7.97;77.58
13869;BME280;7004;48.206;16.402;2023-02-12T07:43:45;101645.78;;;7.65;78.98
13869;BME280;7004;48.206;16.402;2023-02-12T07:46:19;101650.88;;;7.73;78.94
13869;BME280;7004;48.206;16.402;2023-02-12T07:48:46;101658.06;;;8.05;77.02
13869;BME280;7004;48.206;16.402;2023-02-12T07:51:16;101655.25;;;7.73;78.75
13869;BME280;7004;48.206;16.402;2023-02-12T07:53:44;101658.22;;;7.99;77.68
13869;BME280;7004;48.206;16.402;2023-02-12T07:56:13;101658.66;;;7.78;78.27
13869;BME280;7004;48.206;16.402;2023-02-12T07:58:41;101659.91;;;8.02;76.78
13869;BME280;7004;48.206;16.402;2023-02-12T08:01:27;101664.28;;;7.61;77.93
13869;BME280;7004;48.206;16.402;2023-02-12T08:04:00;101667.75;;;8.03;77.27
13869;BME280;7004;48.206;16.402;2023-02-12T08:06:31;101663.72;;;8.27;75.64
13869;BME280;7004;48.206;16.402;2023-02-12T08:09:00;101670.22;;;8.11;76.68
13869;BME280;7004;48.206;16.402;2023-02-12T08:11:27;101670.25;;;7.69;78.78
13869;BME280;7004;48.206;16.402;2023-02-12T08:13:54;101677.75;;;7.89;76.94
13869;BME280;7004;48.206;16.402;2023-02-12T08:16:23;101674.66;;;8.09;76.55
13869;BME280;7004;48.206;16.402;2023-02-12T08:18:51;101692.31;;;8.46;74.66
13869;BME280;7004;48.206;16.402;2023-02-12T08:21:23;101690.25;;;7.78;77.32
13869;BME280;7004;48.206;16.402;2023-02-12T08:23:50;101691.13;;;8.20;75.57
13869;BME280;7004;48.206;16.402;2023-02-12T08:26:36;101691.97;;;8.21;75.69
13869;BME280;7004;48.206;16.402;2023-02-12T08:29:07;101692.06;;;8.16;74.91
13869;BME280;7004;48.206;16.402;2023-02-12T08:31:40;101699.59;;;7.93;76.37
13869;BME280;7004;48.206;16.402;2023-02-12T08:34:19;101695.09;;;8.38;74.47
13869;BME280;7004;48.206;16.402;2023-02-12T08:36:47;101687.03;;;8.82;73.26
13869;BME280;7004;48.206;16.402;2023-02-12T08:39:16;101705.09;;;8.63;73.03
13869;BME280;7004;48.206;16.402;2023-02-12T08:41:42;101703.03;;;8.75;72.45
13869;BME280;7004;48.206;16.402;2023-02-12T08:44:10;101716.56;;;8.98;71.84
13869;BME280;7004;48.206;16.402;2023-02-12T08:46:39;101724.97;;;8.37;74.50
13869;BME280;7004;48.206;16.402;2023-02-12T08:49:12;101718.81;;;8.38;74.72
13869;BME280;7004;48.206;16.402;2023-02-12T08:51:45;101712.84;;;8.69;74.11
13869;BME280;7004;48.206;16.402;2023-02-12T08:54:17;101716.97;;;8.81;73.41
13869;BME280;7004;48.206;16.402;2023-02-12T08:56:44;101720.63;;;8.75;73.02
13869;BME280;7004;48.206;16.402;2023-02-12T08:59:12;101716.69;;;8.93;72.27
13869;BME280;7004;48.206;16.402;2023-02-12T09:01:39;101722.44;;;8.73;72.57
13869;BME280;7004;48.206;16.402;2023-02-12T09:04:22;101725.03;;;8.36;74.12
13869;BME280;7004;48.206;16.402;2023-02-12T09:06:50;101722.03;;;9.24;71.04
13869;BME280;7004;48.206;16.402;2023-02-12T09:09:16;101719.66;;;9.48;69.77
13869;BME280;7004;48.206;16.402;2023-02-12T09:11:44;101725.97;;;10.04;66.40
13869;BME280;7004;48.206;16.402;2023-02-12T09:14:14;101727.22;;;9.29;69.15
13869;BME280;7004;48.206;16.402;2023-02-12T09:16:41;101729.69;;;9.68;67.75
13869;BME280;7004;48.206;16.402;2023-02-12T09:19:09;101728.41;;;9.81;66.92
13869;BME280;7004;48.206;16.402;2023-02-12T09:21:36;101733.13;;;9.70;67.92
13869;BME280;7004;48.206;16.402;2023-02-12T09:24:02;101736.69;;;9.69;67.35
13869;BME280;7004;48.206;16.402;2023-02-12T09:26:28;101729.97;;;9.24;68.45
13869;BME280;7004;48.206;16.402;2023-02-12T09:28:55;101739.66;;;9.56;67.20
13869;BME280;7004;48.206;16.402;2023-02-12T09:31:24;101736.34;;;9.81;66.66
13869;BME280;7004;48.206;16.402;2023-02-12T09:33:53;101734.19;;;9.31;68.69
13869;BME280;7004;48.206;16.402;2023-02-12T09:36:20;101730.66;;;9.31;68.46
13869;BME280;7004;48.206;16.402;2023-02-12T09:38:46;101737.69;;;8.96;69.47
13869;BME280;7004;48.206;16.402;2023-02-12T09:44:29;101735.97;;;9.29;68.33
13869;BME280;7004;48.206;16.402;2023-02-12T09:47:14;101728.16;;;10.78;62.07
13869;BME280;7004;48.206;16.402;2023-02-12T09:50:30;101727.56;;;10.96;61.75
13869;BME280;7004;48.206;16.402;2023-02-12T09:53:01;101744.50;;;10.03;64.54
13869;BME280;7004;48.206;16.402;2023-02-12T09:55:31;101734.75;;;10.64;63.25
13869;BME280;7004;48.206;16.402;2023-02-12T09:58:04;101738.97;;;11.50;59.87
13869;BME280;7004;48.206;16.402;2023-02-12T10:00:34;101732.03;;;11.21;58.54
13869;BME280;7004;48.206;16.402;2023-02-12T10:03:03;101740.66;;;12.01;56.52
13869;BME280;7004;48.206;16.402;2023-02-12T10:05:54;101737.25;;;11.22;59.90
13869;BME280;7004;48.206;16.402;2023-02-12T10:08:53;101740.16;;;10.88;59.61
13869;BME280;7004;48.206;16.402;2023-02-12T10:11:50;101740.09;;;10.89;59.59
13869;BME280;7004;48.206;16.402;2023-02-12T10:20:29;101743.84;;;11.35;56.90
13869;BME280;7004;48.206;16.402;2023-02-12T10:26:20;101745.91;;;12.72;54.89
13869;BME280;7004;48.206;16.402;2023-02-12T10:28:48;101736.81;;;11.85;55.70
13869;BME280;7004;48.206;16.402;2023-02-12T10:31:33;101743.91;;;11.84;56.31
13869;BME280;7004;48.206;16.402;2023-02-12T10:34:21;101750.56;;;12.43;53.06
13869;BME280;7004;48.206;16.402;2023-02-12T10:36:50;101745.88;;;11.29;56.54
13869;BME280;7004;48.206;16.402;2023-02-12T10:39:30;101747.41;;;12.10;55.14
13869;BME280;7004;48.206;16.402;2023-02-12T10:42:37;101745.69;;;12.32;53.59
13869;BME280;7004;48.206;16.402;2023-02-12T10:45:13;101746.88;;;12.00;54.72
13869;BME280;7004;48.206;16.402;2023-02-12T10:47:44;101741.13;;;12.58;53.22
13869;BME280;7004;48.206;16.402;2023-02-12T10:50:36;101749.53;;;12.69;52.98
13869;BME280;7004;48.206;16.402;2023-02-12T10:53:04;101748.91;;;11.68;54.94
13869;BME280;7004;48.206;16.402;2023-02-12T10:55:33;101746.78;;;11.01;56.81
13869;BME280;7004;48.206;16.402;2023-02-12T10:58:03;101741.00;;;11.67;56.61
13869;BME280;7004;48.206;16.402;2023-02-12T11:00:35;101739.91;;;11.22;57.30
13869;BME280;7004;48.206;16.402;2023-02-12T11:05:40;101731.16;;;11.45;57.17
13869;BME280;7004;48.206;16.402;2023-02-12T11:11:22;101735.44;;;10.98;57.76
13869;BME280;7004;48.206;16.402;2023-02-12T11:14:20;101733.19;;;12.12;54.80
13869;BME280;7004;48.206;16.402;2023-02-12T11:16:58;101721.25;;;12.68;52.35
13869;BME280;7004;48.206;16.402;2023-02-12T11:19:29;101719.91;;;11.64;55.74
13869;BME280;7004;48.206;16.402;2023-02-12T11:22:14;101725.72;;;11.98;53.48
13869;BME280;7004;48.206;16.402;2023-02-12T11:24:45;101719.22;;;12.75;51.76
13869;BME280;7004;48.206;16.402;2023-02-12T11:29:45;101706.44;;;13.87;49.72
13869;BME280;7004;48.206;16.402;2023-02-12T11:32:19;101708.47;;;11.88;54.47
13869;BME280;7004;48.206;16.402;2023-02-12T11:35:31;101695.22;;;13.41;50.87
13869;BME280;7004;48.206;16.402;2023-02-12T11:38:02;101708.78;;;13.12;51.11
13869;BME280;7004;48.206;16.402;2023-02-12T11:40:32;101705.31;;;13.92;48.56
13869;BME280;7004;48.206;16.402;2023-02-12T11:43:05;101707.28;;;13.68;48.96
13869;BME280;7004;48.206;16.402;2023-02-12T11:48:24;101707.75;;;12.74;51.41
13869;BME280;7004;48.206;16.402;2023-02-12T11:50:55;101700.84;;;13.53;49.26
13869;BME280;7004;48.206;16.402;2023-02-12T11:53:42;101699.97;;;13.12;50.91
13869;BME280;7004;48.206;16.402;2023-02-12T11:56:13;101701.47;;;13.60;48.57
13869;BME280;7004;48.206;16.402;2023-02-12T11:58:40;101702.72;;;13.51;48.82
13869;BME280;7004;48.206;16.402;2023-02-12T12:01:30;101712.53;;;12.42;51.79
13869;BME280;7004;48.206;16.402;2023-02-12T12:04:14;101720.03;;;12.55;51.48
13869;BME280;7004;48.206;16.402;2023-02-12T12:07:06;101712.81;;;13.64;48.68
13869;BME280;7004;48.206;16.402;2023-02-12T12:12:42;101715.19;;;12.86;51.24
13869;BME280;7004;48.206;16.402;2023-02-12T12:15:25;101711.00;;;12.37;52.11
13869;BME280;7004;48.206;16.402;2023-02-12T12:18:44;101706.47;;;12.40;52.49
13869;BME280;7004;48.206;16.402;2023-02-12T12:21:46;101699.63;;;11.88;54.60
13869;BME280;7004;48.206;16.402;2023-02-12T12:24:39;101701.09;;;11.71;54.97
13869;BME280;7004;48.206;16.402;2023-02-12T12:27:27;101714.19;;;10.74;58.51
13869;BME280;7004;48.206;16.402;2023-02-12T12:30:47;101702.28;;;11.39;56.98
13869;BME280;7004;48.206;16.402;2023-02-12T12:42:11;101705.06;;;11.59;55.93
13869;BME280;7004;48.206;16.402;2023-02-12T12:54:01;101693.72;;;11.31;56.84
13869;BME280;7004;48.206;16.402;2023-02-12T13:14:36;101697.94;;;11.11;57.89
13869;BME280;7004;48.206;16.402;2023-02-12T13:17:50;101696.91;;;10.89;58.74
13869;BME280;7004;48.206;16.402;2023-02-12T13:28:45;101694.41;;;11.36;57.12
13869;BME280;7004;48.206;16.402;2023-02-12T13:31:20;101694.44;;;10.84;58.33
13869;BME280;7004;48.206;16.402;2023-02-12T13:34:03;101693.41;;;11.40;57.20
13869;BME280;7004;48.206;16.402;2023-02-12T13:36:34;101698.06;;;11.07;58.04
13869;BME280;7004;48.206;16.402;2023-02-12T13:42:22;101702.63;;;11.03;58.16
13869;BME280;7004;48.206;16.402;2023-02-12T13:45:24;101697.94;;;11.36;57.22
13869;BME280;7004;48.206;16.402;2023-02-12T14:04:56;101704.75;;;11.19;58.49
13869;BME280;7004;48.206;16.402;2023-02-12T14:07:47;101704.66;;;11.20;58.86
13869;BME280;7004;48.206;16.402;2023-02-12T14:10:41;101698.00;;;11.35;58.54
13869;BME280;7004;48.206;16.402;2023-02-12T14:13:21;101695.38;;;11.33;58.51
13869;BME280;7004;48.206;16.402;2023-02-12T14:15:54;101690.97;;;11.34;57.90
13869;BME280;7004;48.206;16.402;2023-02-12T14:18:35;101689.22;;;11.33;58.59
13869;BME280;7004;48.206;16.402;2023-02-12T14:23:42;101688.34;;;11.07;58.98
13869;BME280;7004;48.206;16.402;2023-02-12T14:26:19;101692.84;;;11.30;57.97
13869;BME280;7004;48.206;16.402;2023-02-12T14:28:54;101686.78;;;11.02;58.79
13869;BME280;7004;48.206;16.402;2023-02-12T14:31:35;101697.66;;;11.19;59.02
13869;BME280;7004;48.206;16.402;2023-02-12T14:41:55;101701.28;;;10.63;59.55
13869;BME280;7004;48.206;16.402;2023-02-12T14:44:53;101704.88;;;10.61;60.02
13869;BME280;7004;48.206;16.402;2023-02-12T14:50:16;101700.69;;;10.82;60.05
13869;BME280;7004;48.206;16.402;2023-02-12T14:53:05;101708.09;;;10.70;59.50
13869;BME280;7004;48.206;16.402;2023-02-12T14:55:35;101708.56;;;11.10;58.99
13869;BME280;7004;48.206;16.402;2023-02-12T14:58:18;101707.00;;;10.49;61.17
13869;BME280;7004;48.206;16.402;2023-02-12T15:00:48;101718.19;;;11.37;58.23
13869;BME280;7004;48.206;16.402;2023-02-12T15:06:11;101723.75;;;10.20;62.70
13869;BME280;7004;48.206;16.402;2023-02-12T15:08:55;101722.75;;;10.54;61.21
13869;BME280;7004;48.206;16.402;2023-02-12T15:11:40;101734.84;;;10.33;62.79
13869;BME280;7004;48.206;16.402;2023-02-12T15:16:59;101723.94;;;9.83;64.33
13869;BME280;7004;48.206;16.402;2023-02-12T15:20:02;101730.63;;;10.26;62.80
13869;BME280;7004;48.206;16.402;2023-02-12T15:22:35;101739.22;;;9.72;65.12
13869;BME280;7004;48.206;16.402;2023-02-12T15:25:29;101729.56;;;10.02;64.08
13869;BME280;7004;48.206;16.402;2023-02-12T15:28:19;101729.56;;;10.02;64.22
13869;BME280;7004;48.206;16.402;2023-02-12T15:30:47;101730.09;;;9.83;64.94
13869;BME280;7004;48.206;16.402;2023-02-12T15:33:29;101724.66;;;9.88;64.69
13869;BME280;7004;48.206;16.402;2023-02-12T15:35:57;101727.78;;;10.02;64.26
13869;BME280;7004;48.206;16.402;2023-02-12T15:38:39;101731.34;;;10.01;64.50
13869;BME280;7004;48.206;16.402;2023-02-12T15:41:40;101731.63;;;9.92;64.18
13869;BME280;7004;48.206;16.402;2023-02-12T15:44:30;101735.50;;;10.10;63.93
13869;BME280;7004;48.206;16.402;2023-02-12T15:47:13;101745.25;;;9.77;65.40
13869;BME280;7004;48.206;16.402;2023-02-12T15:49:42;101744.50;;;9.39;66.61
13869;BME280;7004;48.206;16.402;2023-02-12T15:52:23;101748.38;;;9.91;64.51
13869;BME280;7004;48.206;16.402;2023-02-12T15:55:01;101753.97;;;9.48;66.79
13869;BME280;7004;48.206;16.402;2023-02-12T15:57:30;101751.59;;;9.70;65.95
13869;BME280;7004;48.206;16.402;2023-02-12T16:00:06;101757.72;;;9.72;65.80
13869;BME280;7004;48.206;16.402;2023-02-12T16:02:34;101758.34;;;9.81;65.08
13869;BME280;7004;48.206;16.402;2023-02-12T16:05:05;101758.28;;;9.83;65.42
13869;BME280;7004;48.206;16.402;2023-02-12T16:07:35;101760.94;;;9.50;66.15
13869;BME280;7004;48.206;16.402;2023-02-12T16:10:09;101759.06;;;9.54;66.26
13869;BME280;7004;48.206;16.402;2023-02-12T16:12:39;101754.53;;;9.59;65.26
13869;BME280;7004;48.206;16.402;2023-02-12T16:15:31;101761.22;;;10.03;63.50
13869;BME280;7004;48.206;16.402;2023-02-12T16:17:59;101759.41;;;9.74;65.70